Begonia S — E5U2842 — position and weather

sailwx.info

Track history (hours):
 
Tides and Currents Weather Stations Pressure Air Temp Water Temp Dewpoint Dewpoint Depression Visibility Wind Speed Wind Dir Waves Ship Positions

Begonia S

Last reported at 2017-Dec-15 18:00 UTC. Time now 2017-Dec-15 18:06 UTC.
Position N 44°33' E 037°47'.

Length 140 m; draft 5.9 m.

Type: Cargo ship. MMSI: 518895000.

Date/timePositionNaut miles runAvg speedWind from/ knotsBaromVisibWave heightAir tempDewpointWater temp
2017-Dec-15 18:00N 44°33' E 037°47'0 0.6
2017-Dec-15 17:29N 44°33' E 037°47'0 0.8
2017-Dec-15 16:59N 44°32' E 037°47'0 0.9
2017-Dec-15 16:29N 44°32' E 037°48'0 0.9
2017-Dec-15 15:59N 44°32' E 037°48'0 0.9
2017-Dec-15 15:26N 44°31' E 037°49'0 0.8
2017-Dec-15 14:59N 44°31' E 037°49'0 0.7
2017-Dec-15 14:26N 44°31' E 037°49'2 1.0
2017-Dec-15 12:02N 44°28' E 037°51'0 1.7
2017-Dec-15 12:00N 44°28' E 037°51'0 0.7
2017-Dec-15 11:30N 44°29' E 037°50'3 5.6
2017-Dec-15 11:00N 44°31' E 037°48'3 5.1
2017-Dec-15 10:30N 44°33' E 037°46'1 1.3
2017-Dec-15 10:00N 44°33' E 037°47'1 1.1
2017-Dec-15 09:30N 44°33' E 037°48'1 1.1
2017-Dec-15 08:57N 44°32' E 037°48'1 1.1
2017-Dec-15 08:30N 44°32' E 037°49'1 1.1
2017-Dec-15 08:00N 44°31' E 037°50'1 1.1
2017-Dec-15 07:27N 44°31' E 037°50'1 1.1
2017-Dec-15 06:59N 44°31' E 037°51'1 1.2
2017-Dec-15 06:29N 44°30' E 037°51'1 1.2
2017-Dec-15 05:59N 44°30' E 037°52'1 2.8
2017-Dec-15 05:30N 44°31' E 037°51'1 1.4
2017-Dec-15 04:58N 44°31' E 037°50'1 0.9
2017-Dec-15 03:52N 44°31' E 037°51'1 1.0
2017-Dec-15 02:30N 44°30' E 037°53'7 4.5
2017-Dec-15 01:00N 44°29' E 037°43'3 6.0
2017-Dec-15 00:30N 44°28' E 037°39'26210.6
2017-Dec-13 23:47N 44°11' E 031°34'411.4
2017-Dec-13 23:25N 44°11' E 031°28'911.6
2017-Dec-13 22:40N 44°11' E 031°16'211.6
2017-Dec-13 22:30N 44°10' E 031°14'611.7
2017-Dec-13 22:00N 44°10' E 031°05'1711.6
2017-Dec-13 20:33N 44°09' E 030°42'111.5
2017-Dec-13 20:30N 44°09' E 030°41'611.7
2017-Dec-13 20:00N 44°09' E 030°33'611.8
2017-Dec-13 19:30N 44°08' E 030°25'612.0
2017-Dec-13 19:00N 44°08' E 030°16'612.1
2017-Dec-13 18:30N 44°08' E 030°08'612.0
2017-Dec-13 18:00N 44°07' E 029°60'612.0
2017-Dec-13 17:30N 44°07' E 029°51'612.0
2017-Dec-13 17:00N 44°07' E 029°43'612.0
2017-Dec-13 16:30N 44°07' E 029°35'611.9
2017-Dec-13 16:00N 44°06' E 029°26'612.0
2017-Dec-13 15:30N 44°06' E 029°18'611.9
2017-Dec-13 15:00N 44°06' E 029°10'611.8
2017-Dec-13 14:30N 44°05' E 029°02'612.0
2017-Dec-13 14:00N 44°05' E 028°53'612.0
2017-Dec-13 13:30N 44°04' E 028°45'4 8.9
2017-Dec-13 13:00N 44°08' E 028°41'2 3.4
2017-Dec-13 12:30N 44°09' E 028°39'0 0.0
2017-Dec-13 12:00N 44°09' E 028°39'0 0.0
2017-Dec-13 11:30N 44°09' E 028°39'0 0.0
2017-Dec-13 11:00N 44°09' E 028°39'0 0.0
2017-Dec-13 10:30N 44°09' E 028°39'0 0.0
2017-Dec-13 10:00N 44°09' E 028°39'0 0.0
2017-Dec-13 09:30N 44°09' E 028°39'0 0.0
2017-Dec-13 09:00N 44°09' E 028°39'0 0.0
2017-Dec-13 08:30N 44°09' E 028°39'0 0.0
2017-Dec-13 08:00N 44°09' E 028°39'0 0.0
2017-Dec-13 07:30N 44°09' E 028°39'0 0.0
2017-Dec-13 07:00N 44°09' E 028°39'0 0.0
2017-Dec-13 06:30N 44°09' E 028°39'0 0.0
2017-Dec-13 06:00N 44°09' E 028°39'0 0.0
2017-Dec-13 05:30N 44°09' E 028°39'0 0.0
2017-Dec-13 05:00N 44°09' E 028°39'0 0.0
2017-Dec-13 04:30N 44°09' E 028°39'0 0.0
2017-Dec-13 04:00N 44°09' E 028°39'0 0.0
2017-Dec-13 03:30N 44°09' E 028°39'0 0.0
2017-Dec-13 02:57N 44°09' E 028°39'0 0.0
2017-Dec-13 02:30N 44°09' E 028°39'0 0.0
2017-Dec-13 02:00N 44°09' E 028°39'0 0.0
2017-Dec-13 01:30N 44°09' E 028°39'0 0.0
2017-Dec-13 01:00N 44°09' E 028°39'0 0.0
2017-Dec-13 00:30N 44°09' E 028°39'0 0.0
2017-Dec-13 00:00N 44°09' E 028°39'0 0.0
2017-Dec-12 23:30N 44°09' E 028°39'0 0.0
2017-Dec-12 23:00N 44°09' E 028°39'0 0.0
2017-Dec-12 22:30N 44°09' E 028°39'0 0.0
2017-Dec-12 22:00N 44°09' E 028°39'0 0.0
2017-Dec-12 21:30N 44°09' E 028°39'0 0.0
2017-Dec-12 21:00N 44°09' E 028°39'0 0.0
2017-Dec-12 20:30N 44°09' E 028°39'0 0.0
2017-Dec-12 20:00N 44°09' E 028°39'0 0.0
2017-Dec-12 19:30N 44°09' E 028°39'0 0.0
2017-Dec-12 19:00N 44°09' E 028°39'0 0.0
2017-Dec-12 18:30N 44°09' E 028°39'0 0.0
2017-Dec-12 18:00N 44°09' E 028°39'0 0.0
2017-Dec-12 17:30N 44°09' E 028°39'0 0.0
2017-Dec-12 17:00N 44°09' E 028°39'0 0.0
2017-Dec-12 16:30N 44°09' E 028°39'0 0.0
2017-Dec-12 16:00N 44°09' E 028°39'0 0.0
2017-Dec-12 15:30N 44°09' E 028°39'0 0.0
2017-Dec-12 15:00N 44°09' E 028°39'0 0.0
2017-Dec-12 14:30N 44°09' E 028°39'0 0.0
2017-Dec-12 14:00N 44°09' E 028°39'0 0.0
2017-Dec-12 13:30N 44°09' E 028°39'0 0.0
2017-Dec-12 13:00N 44°09' E 028°39'0 0.0
2017-Dec-12 12:30N 44°09' E 028°39'0 0.0
2017-Dec-12 12:00N 44°09' E 028°39'0 0.0
2017-Dec-12 11:30N 44°09' E 028°39'0 0.0
2017-Dec-12 11:00N 44°09' E 028°39'0 0.0
2017-Dec-12 10:30N 44°09' E 028°39'0 0.0
2017-Dec-12 10:00N 44°09' E 028°39'0 0.0
2017-Dec-12 09:27N 44°09' E 028°39'0 0.0
2017-Dec-12 09:00N 44°09' E 028°39'0 0.0
2017-Dec-12 08:30N 44°09' E 028°39'0 0.0
2017-Dec-12 07:45N 44°09' E 028°39'0 0.0
2017-Dec-12 07:30N 44°09' E 028°39'0 0.0
2017-Dec-12 07:00N 44°09' E 028°39'0 0.0
2017-Dec-12 06:30N 44°09' E 028°39'0 0.0
2017-Dec-12 06:00N 44°09' E 028°39'0 0.0
2017-Dec-12 05:30N 44°09' E 028°39'0 0.0
2017-Dec-12 05:00N 44°09' E 028°39'0 0.0
2017-Dec-12 04:30N 44°09' E 028°39'0 0.0
2017-Dec-12 04:00N 44°09' E 028°39'0 0.0
2017-Dec-12 03:30N 44°09' E 028°39'0 0.0
2017-Dec-12 03:00N 44°09' E 028°39'0 0.0
2017-Dec-12 02:30N 44°09' E 028°39'0 0.0
2017-Dec-12 02:00N 44°09' E 028°39'0 0.0
2017-Dec-12 01:30N 44°09' E 028°39'0 0.0
2017-Dec-12 01:00N 44°09' E 028°39'0 0.0
2017-Dec-12 00:30N 44°09' E 028°39'0 0.0
2017-Dec-12 00:00N 44°09' E 028°39'0 0.0
2017-Dec-11 23:30N 44°09' E 028°39'0 0.0
2017-Dec-11 23:00N 44°09' E 028°39'0 0.0
2017-Dec-11 22:30N 44°09' E 028°39'0 0.0
2017-Dec-11 21:54N 44°09' E 028°39'0 0.0
2017-Dec-11 21:30N 44°09' E 028°39'0 0.0
2017-Dec-11 21:00N 44°09' E 028°39'0 0.0
2017-Dec-11 20:30N 44°09' E 028°39'0 0.0
2017-Dec-11 20:00N 44°09' E 028°39'0 0.0
2017-Dec-11 19:30N 44°09' E 028°39'0 0.0
2017-Dec-11 19:00N 44°09' E 028°39'0 0.0
2017-Dec-11 18:30N 44°09' E 028°39'0 0.0
2017-Dec-11 17:57N 44°09' E 028°39'0 0.0
2017-Dec-11 17:30N 44°09' E 028°39'0 0.0
2017-Dec-11 17:00N 44°09' E 028°39'0 0.0
2017-Dec-11 16:30N 44°09' E 028°39'0 0.0
2017-Dec-11 16:00N 44°09' E 028°39'0 0.0
2017-Dec-11 15:30N 44°09' E 028°39'0 0.0
2017-Dec-11 15:00N 44°09' E 028°39'0 0.0
2017-Dec-11 14:30N 44°09' E 028°39'0 0.9
2017-Dec-11 14:01N 44°09' E 028°40'3 5.4
2017-Dec-11 13:30N 44°07' E 028°42'5 9.6
2017-Dec-11 13:00N 44°03' E 028°46'511.0
2017-Dec-11 12:31N 43°59' E 028°51'612.0
2017-Dec-11 12:00N 43°53' E 028°52'612.3
2017-Dec-11 11:30N 43°47' E 028°53'612.4
2017-Dec-11 11:00N 43°41' E 028°52'612.5
2017-Dec-11 10:30N 43°34' E 028°52'612.4
2017-Dec-11 10:00N 43°28' E 028°51'612.4
2017-Dec-11 09:30N 43°22' E 028°49'14310.9
2017-Dec-10 20:24N 40°60' E 028°60'2 0.2
2017-Dec-10 09:30N 40°59' E 028°57'2 3.1
2017-Dec-10 08:49N 40°58' E 028°59'7 9.3
2017-Dec-10 08:03N 40°52' E 028°53'111.2
2017-Dec-10 07:55N 40°51' E 028°51'208 8.5
2017-Dec-09 07:29N 37°58' E 026°23'711.4
2017-Dec-09 06:53N 37°52' E 026°27'411.7
2017-Dec-09 06:30N 37°48' E 026°29'  
Track history (hours):
 
Tides and Currents Weather Stations Pressure Air Temp Water Temp Dewpoint Dewpoint Depression Visibility Wind Speed Wind Dir Waves Ship Positions

Begonia S

Last reported at 2017-Dec-15 18:00 UTC. Time now 2017-Dec-15 18:06 UTC.
Position N 44°33' E 037°47'.

Length 140 m; draft 5.9 m.

Type: Cargo ship. MMSI: 518895000.

Date/timePositionNaut miles runAvg speedWind from/ knotsBaromVisibWave heightAir tempDewpointWater temp
2017-Dec-15 18:00N 44°33' E 037°47'0 0.6
2017-Dec-15 17:29N 44°33' E 037°47'0 0.8
2017-Dec-15 16:59N 44°32' E 037°47'0 0.9
2017-Dec-15 16:29N 44°32' E 037°48'0 0.9
2017-Dec-15 15:59N 44°32' E 037°48'0 0.9
2017-Dec-15 15:26N 44°31' E 037°49'0 0.8
2017-Dec-15 14:59N 44°31' E 037°49'0 0.7
2017-Dec-15 14:26N 44°31' E 037°49'2 1.0
2017-Dec-15 12:02N 44°28' E 037°51'0 1.7
2017-Dec-15 12:00N 44°28' E 037°51'0 0.7
2017-Dec-15 11:30N 44°29' E 037°50'3 5.6
2017-Dec-15 11:00N 44°31' E 037°48'3 5.1
2017-Dec-15 10:30N 44°33' E 037°46'1 1.3
2017-Dec-15 10:00N 44°33' E 037°47'1 1.1
2017-Dec-15 09:30N 44°33' E 037°48'1 1.1
2017-Dec-15 08:57N 44°32' E 037°48'1 1.1
2017-Dec-15 08:30N 44°32' E 037°49'1 1.1
2017-Dec-15 08:00N 44°31' E 037°50'1 1.1
2017-Dec-15 07:27N 44°31' E 037°50'1 1.1
2017-Dec-15 06:59N 44°31' E 037°51'1 1.2
2017-Dec-15 06:29N 44°30' E 037°51'1 1.2
2017-Dec-15 05:59N 44°30' E 037°52'1 2.8
2017-Dec-15 05:30N 44°31' E 037°51'1 1.4
2017-Dec-15 04:58N 44°31' E 037°50'1 0.9
2017-Dec-15 03:52N 44°31' E 037°51'1 1.0
2017-Dec-15 02:30N 44°30' E 037°53'7 4.5
2017-Dec-15 01:00N 44°29' E 037°43'3 6.0
2017-Dec-15 00:30N 44°28' E 037°39'26210.6
2017-Dec-13 23:47N 44°11' E 031°34'411.4
2017-Dec-13 23:25N 44°11' E 031°28'911.6
2017-Dec-13 22:40N 44°11' E 031°16'211.6
2017-Dec-13 22:30N 44°10' E 031°14'611.7
2017-Dec-13 22:00N 44°10' E 031°05'1711.6
2017-Dec-13 20:33N 44°09' E 030°42'111.5
2017-Dec-13 20:30N 44°09' E 030°41'611.7
2017-Dec-13 20:00N 44°09' E 030°33'611.8
2017-Dec-13 19:30N 44°08' E 030°25'612.0
2017-Dec-13 19:00N 44°08' E 030°16'612.1
2017-Dec-13 18:30N 44°08' E 030°08'612.0
2017-Dec-13 18:00N 44°07' E 029°60'612.0
2017-Dec-13 17:30N 44°07' E 029°51'612.0
2017-Dec-13 17:00N 44°07' E 029°43'612.0
2017-Dec-13 16:30N 44°07' E 029°35'611.9
2017-Dec-13 16:00N 44°06' E 029°26'612.0
2017-Dec-13 15:30N 44°06' E 029°18'611.9
2017-Dec-13 15:00N 44°06' E 029°10'611.8
2017-Dec-13 14:30N 44°05' E 029°02'612.0
2017-Dec-13 14:00N 44°05' E 028°53'612.0
2017-Dec-13 13:30N 44°04' E 028°45'4 8.9
2017-Dec-13 13:00N 44°08' E 028°41'2 3.4
2017-Dec-13 12:30N 44°09' E 028°39'0 0.0
2017-Dec-13 12:00N 44°09' E 028°39'0 0.0
2017-Dec-13 11:30N 44°09' E 028°39'0 0.0
2017-Dec-13 11:00N 44°09' E 028°39'0 0.0
2017-Dec-13 10:30N 44°09' E 028°39'0 0.0
2017-Dec-13 10:00N 44°09' E 028°39'0 0.0
2017-Dec-13 09:30N 44°09' E 028°39'0 0.0
2017-Dec-13 09:00N 44°09' E 028°39'0 0.0
2017-Dec-13 08:30N 44°09' E 028°39'0 0.0
2017-Dec-13 08:00N 44°09' E 028°39'0 0.0
2017-Dec-13 07:30N 44°09' E 028°39'0 0.0
2017-Dec-13 07:00N 44°09' E 028°39'0 0.0
2017-Dec-13 06:30N 44°09' E 028°39'0 0.0
2017-Dec-13 06:00N 44°09' E 028°39'0 0.0
2017-Dec-13 05:30N 44°09' E 028°39'0 0.0
2017-Dec-13 05:00N 44°09' E 028°39'0 0.0
2017-Dec-13 04:30N 44°09' E 028°39'0 0.0
2017-Dec-13 04:00N 44°09' E 028°39'0 0.0
2017-Dec-13 03:30N 44°09' E 028°39'0 0.0
2017-Dec-13 02:57N 44°09' E 028°39'0 0.0
2017-Dec-13 02:30N 44°09' E 028°39'0 0.0
2017-Dec-13 02:00N 44°09' E 028°39'0 0.0
2017-Dec-13 01:30N 44°09' E 028°39'0 0.0
2017-Dec-13 01:00N 44°09' E 028°39'0 0.0
2017-Dec-13 00:30N 44°09' E 028°39'0 0.0
2017-Dec-13 00:00N 44°09' E 028°39'0 0.0
2017-Dec-12 23:30N 44°09' E 028°39'0 0.0
2017-Dec-12 23:00N 44°09' E 028°39'0 0.0
2017-Dec-12 22:30N 44°09' E 028°39'0 0.0
2017-Dec-12 22:00N 44°09' E 028°39'0 0.0
2017-Dec-12 21:30N 44°09' E 028°39'0 0.0
2017-Dec-12 21:00N 44°09' E 028°39'0 0.0
2017-Dec-12 20:30N 44°09' E 028°39'0 0.0
2017-Dec-12 20:00N 44°09' E 028°39'0 0.0
2017-Dec-12 19:30N 44°09' E 028°39'0 0.0
2017-Dec-12 19:00N 44°09' E 028°39'0 0.0
2017-Dec-12 18:30N 44°09' E 028°39'0 0.0
2017-Dec-12 18:00N 44°09' E 028°39'0 0.0
2017-Dec-12 17:30N 44°09' E 028°39'0 0.0
2017-Dec-12 17:00N 44°09' E 028°39'0 0.0
2017-Dec-12 16:30N 44°09' E 028°39'0 0.0
2017-Dec-12 16:00N 44°09' E 028°39'0 0.0
2017-Dec-12 15:30N 44°09' E 028°39'0 0.0
2017-Dec-12 15:00N 44°09' E 028°39'0 0.0
2017-Dec-12 14:30N 44°09' E 028°39'0 0.0
2017-Dec-12 14:00N 44°09' E 028°39'0 0.0
2017-Dec-12 13:30N 44°09' E 028°39'0 0.0
2017-Dec-12 13:00N 44°09' E 028°39'0 0.0
2017-Dec-12 12:30N 44°09' E 028°39'0 0.0
2017-Dec-12 12:00N 44°09' E 028°39'0 0.0
2017-Dec-12 11:30N 44°09' E 028°39'0 0.0
2017-Dec-12 11:00N 44°09' E 028°39'0 0.0
2017-Dec-12 10:30N 44°09' E 028°39'0 0.0
2017-Dec-12 10:00N 44°09' E 028°39'0 0.0
2017-Dec-12 09:27N 44°09' E 028°39'0 0.0
2017-Dec-12 09:00N 44°09' E 028°39'0 0.0
2017-Dec-12 08:30N 44°09' E 028°39'0 0.0
2017-Dec-12 07:45N 44°09' E 028°39'0 0.0
2017-Dec-12 07:30N 44°09' E 028°39'0 0.0
2017-Dec-12 07:00N 44°09' E 028°39'0 0.0
2017-Dec-12 06:30N 44°09' E 028°39'0 0.0
2017-Dec-12 06:00N 44°09' E 028°39'0 0.0
2017-Dec-12 05:30N 44°09' E 028°39'0 0.0
2017-Dec-12 05:00N 44°09' E 028°39'0 0.0
2017-Dec-12 04:30N 44°09' E 028°39'0 0.0
2017-Dec-12 04:00N 44°09' E 028°39'0 0.0
2017-Dec-12 03:30N 44°09' E 028°39'0 0.0
2017-Dec-12 03:00N 44°09' E 028°39'0 0.0
2017-Dec-12 02:30N 44°09' E 028°39'0 0.0
2017-Dec-12 02:00N 44°09' E 028°39'0 0.0
2017-Dec-12 01:30N 44°09' E 028°39'0 0.0
2017-Dec-12 01:00N 44°09' E 028°39'0 0.0
2017-Dec-12 00:30N 44°09' E 028°39'0 0.0
2017-Dec-12 00:00N 44°09' E 028°39'0 0.0
2017-Dec-11 23:30N 44°09' E 028°39'0 0.0
2017-Dec-11 23:00N 44°09' E 028°39'0 0.0
2017-Dec-11 22:30N 44°09' E 028°39'0 0.0
2017-Dec-11 21:54N 44°09' E 028°39'0 0.0
2017-Dec-11 21:30N 44°09' E 028°39'0 0.0
2017-Dec-11 21:00N 44°09' E 028°39'0 0.0
2017-Dec-11 20:30N 44°09' E 028°39'0 0.0
2017-Dec-11 20:00N 44°09' E 028°39'0 0.0
2017-Dec-11 19:30N 44°09' E 028°39'0 0.0
2017-Dec-11 19:00N 44°09' E 028°39'0 0.0
2017-Dec-11 18:30N 44°09' E 028°39'0 0.0
2017-Dec-11 17:57N 44°09' E 028°39'0 0.0
2017-Dec-11 17:30N 44°09' E 028°39'0 0.0
2017-Dec-11 17:00N 44°09' E 028°39'0 0.0
2017-Dec-11 16:30N 44°09' E 028°39'0 0.0
2017-Dec-11 16:00N 44°09' E 028°39'0 0.0
2017-Dec-11 15:30N 44°09' E 028°39'0 0.0
2017-Dec-11 15:00N 44°09' E 028°39'0 0.0
2017-Dec-11 14:30N 44°09' E 028°39'0 0.9
2017-Dec-11 14:01N 44°09' E 028°40'3 5.4
2017-Dec-11 13:30N 44°07' E 028°42'5 9.6
2017-Dec-11 13:00N 44°03' E 028°46'511.0
2017-Dec-11 12:31N 43°59' E 028°51'612.0
2017-Dec-11 12:00N 43°53' E 028°52'612.3
2017-Dec-11 11:30N 43°47' E 028°53'612.4
2017-Dec-11 11:00N 43°41' E 028°52'612.5
2017-Dec-11 10:30N 43°34' E 028°52'612.4
2017-Dec-11 10:00N 43°28' E 028°51'612.4
2017-Dec-11 09:30N 43°22' E 028°49'14310.9
2017-Dec-10 20:24N 40°60' E 028°60'2 0.2
2017-Dec-10 09:30N 40°59' E 028°57'2 3.1
2017-Dec-10 08:49N 40°58' E 028°59'7 9.3
2017-Dec-10 08:03N 40°52' E 028°53'111.2
2017-Dec-10 07:55N 40°51' E 028°51'208 8.5
2017-Dec-09 07:29N 37°58' E 026°23'711.4
2017-Dec-09 06:53N 37°52' E 026°27'411.7
2017-Dec-09 06:30N 37°48' E 026°29'  

Dump ship's entire track history